This is the latest recevied weather packets stored in our database for station/object CE3JSG-13. If no packets are shown the sender has not sent any weather packets the latest 10 day(s).
| Time | Temp. | Humidity | Pressure | Rain* | Wind** | Luminosity | Snow |
|---|---|---|---|---|---|---|---|
| 1777603455 | 14.44° C | 89% | 1017.6 hPa | - | - | - | - |
| 1777603035 | 15° C | 85% | 1017.2 hPa | - | - | - | - |
| 1777602615 | 15° C | 84% | 1017 hPa | - | - | - | - |
| 1777602195 | 15° C | 83% | 1016.4 hPa | - | - | - | - |
| 1777601355 | 14.44° C | 87% | 1016.4 hPa | - | - | - | - |
| 1777583715 | 22.22° C | 49% | 1011.1 hPa | - | - | - | - |
| 1777581615 | 23.89° C | 43% | 1008.9 hPa | - | - | - | - |
| 1777580355 | 23.89° C | 41% | 1010.5 hPa | - | - | - | - |
| 1777579515 | 24.44° C | 40% | 1010 hPa | - | - | - | - |
| 1777577415 | 26.11° C | 38% | 1009.5 hPa | - | - | - | - |
| 1777575315 | 26.11° C | 36% | 1008.8 hPa | - | - | - | - |
| 1777574055 | 26.11° C | 35% | 1009.7 hPa | - | - | - | - |
| 1777573215 | 26.11° C | 34% | 1009 hPa | - | - | - | - |
| 1777570275 | 25.56° C | 38% | 1009 hPa | - | - | - | - |
| 1777569855 | 25° C | 39% | 1010.6 hPa | - | - | - | - |
| 1777569015 | 25.56° C | 38% | 1009.9 hPa | - | - | - | - |
| 1777566915 | 25° C | 37% | 1010.7 hPa | - | - | - | - |
| 1777566495 | 25° C | 37% | 1009.5 hPa | - | - | - | - |
| 1777565655 | 24.44° C | 38% | 1010.5 hPa | - | - | - | - |
| 1777557255 | 19.44° C | 50% | 1009.7 hPa | - | - | - | - |
| 1777555995 | 18.33° C | 53% | 1010.5 hPa | - | - | - | - |
| 1777555155 | 16.67° C | 57% | 1011 hPa | - | - | - | - |
| 1777554315 | 16.67° C | 60% | 1010.3 hPa | - | - | - | - |
| 1777551375 | 14.44° C | 70% | 1011.5 hPa | - | - | - | - |
| 1777550115 | 13.33° C | 74% | 1012.1 hPa | - | - | - | - |
* Rain since midnight (hover to see other rain measurements)
** Current wind speed in m/s (hover to see current wind gust speed)